KGVT/GVT METAR and TAF weather

Enter ICAO airport designator
Station Type Date Time Source
KGVT METAR 2019/10/23 07:15 UTC NOAA

KGVT 230715Z AUTO 00000KT 10SM CLR 11/05 A3010 RMK AO2


Station Type Date Time Source
KGVT Decoded METAR 2019/10/23 07:15 UTC NOAA

Greenville / Majors, TX, United States (KGVT) 33-04N 096-04W
Oct 23, 2019 - 03:15 AM EDT / 2019.10.23 0715 UTC
Wind: Calm:0
Visibility: 10 mile(s):0
Sky conditions: clear
Temperature: 51 F (11 C)
Dew Point: 41 F (5 C)
Relative Humidity: 66%
Pressure (altimeter): 30.1 in. Hg (1019 hPa)
ob: KGVT 230715Z AUTO 00000KT 10SM CLR 11/05 A3010 RMK AO2
cycle: 7

Station Type Date Time Source
KGVT TAF UTC NOAA

Error!

Example: see airport list